Time;durP1;ratioP1;P1;durP2;ratioP2;P2;SDS_P1;SDS_P2;PMS_P1;PMS_P2;Temp;Humidity;BMP_temperature;BMP_pressure;BME280_temperature;BME280_humidity;BME280_pressure;Samples;Min_cycle;Max_cycle;Signal;HPM_P1;HPM_P2
2022/01/02 00:00:41;;;;;;;41.80;24.40;;;;;;;8.14;89.27;99432.41;108342;1274;22563;-73
2022/01/02 00:03:08;;;;;;;42.00;24.30;;;;;;;8.11;89.63;99429.75;108308;1273;22564;-74
2022/01/02 00:05:38;;;;;;;44.60;26.20;;;;;;;8.12;89.52;99429.39;108278;1273;22723;-74
2022/01/02 00:08:10;;;;;;;40.20;25.10;;;;;;;8.10;89.84;99435.52;108292;1274;26126;-73
2022/01/02 00:10:56;;;;;;;43.00;24.30;;;;;;;8.07;89.41;99437.73;108513;1274;22559;-73
2022/01/02 00:13:28;;;;;;;43.50;24.70;;;;;;;8.05;89.67;99438.02;108299;1274;23212;-73
2022/01/02 00:15:57;;;;;;;48.60;25.80;;;;;;;8.07;89.72;99430.63;108304;1274;22595;-73
2022/01/02 00:18:27;;;;;;;44.30;26.20;;;;;;;8.08;89.36;99431.95;108296;1274;22600;-73
2022/01/02 00:20:56;;;;;;;46.60;28.10;;;;;;;8.06;89.50;99436.04;108322;1274;22712;-73
2022/01/02 00:23:30;;;;;;;56.80;29.50;;;;;;;8.02;89.89;99435.70;108328;1274;22594;-73
2022/01/02 00:26:04;;;;;;;57.90;31.00;;;;;;;7.99;89.97;99434.62;108296;1274;22566;-73
2022/01/02 00:28:32;;;;;;;59.80;30.70;;;;;;;7.99;89.85;99433.23;108291;1274;22722;-74
2022/01/02 00:30:59;;;;;;;62.30;32.10;;;;;;;8.01;89.40;99436.41;108330;1274;22568;-73
2022/01/02 00:33:26;;;;;;;70.20;33.00;;;;;;;8.02;89.43;99438.67;108317;1274;22618;-72
2022/01/02 00:35:53;;;;;;;77.20;37.50;;;;;;;8.00;89.52;99429.37;108332;1273;22648;-73
2022/01/02 00:38:22;;;;;;;75.80;37.60;;;;;;;7.97;89.70;99420.81;108303;1274;22628;-73
2022/01/02 00:40:53;;;;;;;86.90;39.50;;;;;;;7.95;89.78;99413.45;108305;1274;22738;-73
2022/01/02 00:43:31;;;;;;;80.20;37.40;;;;;;;7.95;89.76;99413.79;108301;1274;22872;-73
2022/01/02 00:46:03;;;;;;;72.80;36.00;;;;;;;7.96;89.51;99416.17;108305;1274;22582;-73
2022/01/02 00:48:33;;;;;;;71.70;35.20;;;;;;;7.95;89.25;99411.58;108309;1272;23275;-73
2022/01/02 00:51:04;;;;;;;76.40;38.10;;;;;;;7.92;89.84;99411.83;108360;1274;22550;-76
2022/01/02 00:53:34;;;;;;;81.20;39.20;;;;;;;7.89;90.09;99410.92;108287;1274;23329;-73
2022/01/02 00:56:03;;;;;;;76.80;37.00;;;;;;;7.88;89.92;99406.63;108295;1274;23215;-74
2022/01/02 00:58:35;;;;;;;77.60;37.00;;;;;;;7.87;89.78;99408.22;108304;1274;22629;-74
2022/01/02 01:01:06;;;;;;;73.00;34.90;;;;;;;7.92;89.85;99411.15;108281;1274;22622;-74
2022/01/02 01:03:34;;;;;;;70.30;35.00;;;;;;;7.91;89.68;99403.35;108253;1274;22567;-74
2022/01/02 01:06:03;;;;;;;76.80;36.80;;;;;;;7.93;89.98;99404.16;108273;1274;22613;-76
2022/01/02 01:08:32;;;;;;;80.60;37.80;;;;;;;7.93;89.79;99401.77;108320;1274;22542;-75
2022/01/02 01:11:04;;;;;;;74.70;37.10;;;;;;;7.93;89.90;99389.08;108282;1274;22561;-75
2022/01/02 01:13:32;;;;;;;77.40;36.40;;;;;;;7.92;89.88;99389.28;108299;1274;24089;-78
2022/01/02 01:15:59;;;;;;;65.40;32.80;;;;;;;7.94;89.50;99398.39;108136;1274;196090;-74
2022/01/02 01:18:26;;;;;;;64.40;30.30;;;;;;;7.93;89.84;99398.27;108286;1274;22539;-73
2022/01/02 01:20:54;;;;;;;71.30;35.30;;;;;;;7.89;89.60;99393.71;108487;1274;22583;-76
2022/01/02 01:23:21;;;;;;;78.60;38.60;;;;;;;7.85;89.86;99388.88;108506;1274;22556;-75
2022/01/02 01:25:49;;;;;;;81.90;38.50;;;;;;;7.82;89.77;99391.61;108465;1274;22554;-76
2022/01/02 01:28:17;;;;;;;81.30;37.80;;;;;;;7.77;89.72;99389.91;108490;1274;22590;-75
2022/01/02 01:30:44;;;;;;;76.10;36.80;;;;;;;7.77;89.74;99393.58;108530;1274;22594;-76
2022/01/02 01:33:11;;;;;;;73.70;34.80;;;;;;;7.77;89.44;99400.01;108457;1274;22539;-78
2022/01/02 01:35:40;;;;;;;72.20;35.70;;;;;;;7.75;89.81;99397.64;108483;1274;22584;-76
2022/01/02 01:38:07;;;;;;;68.70;33.90;;;;;;;7.70;89.73;99398.33;108481;1274;22593;-76
2022/01/02 01:40:40;;;;;;;71.50;35.40;;;;;;;7.66;89.86;99399.73;108518;1274;22550;-73
2022/01/02 01:43:09;;;;;;;67.80;33.60;;;;;;;7.66;89.84;99391.77;108493;1274;22560;-73
2022/01/02 01:45:36;;;;;;;64.10;32.40;;;;;;;7.69;89.68;99381.93;108484;1274;22561;-74
2022/01/02 01:48:06;;;;;;;69.90;33.80;;;;;;;7.70;89.76;99377.90;108477;1274;22578;-75
2022/01/02 01:50:37;;;;;;;67.30;35.10;;;;;;;7.70;89.97;99375.83;108470;1273;22736;-73
2022/01/02 01:53:05;;;;;;;71.60;37.10;;;;;;;7.66;89.77;99370.98;108479;1274;25455;-74
2022/01/02 01:55:35;;;;;;;75.60;37.40;;;;;;;7.65;90.22;99373.96;108501;1274;22552;-76
2022/01/02 01:58:05;;;;;;;71.70;35.60;;;;;;;7.65;89.92;99369.96;108489;1274;22555;-80
2022/01/02 02:00:35;;;;;;;61.10;34.30;;;;;;;7.69;89.90;99361.64;108465;1274;22553;-78
2022/01/02 02:03:03;;;;;;;56.70;31.90;;;;;;;7.70;89.86;99359.51;108528;1274;22557;-75
2022/01/02 02:05:30;;;;;;;59.50;32.40;;;;;;;7.71;89.68;99351.00;108527;1274;22569;-75
2022/01/02 02:07:57;;;;;;;61.80;33.20;;;;;;;7.72;90.02;99343.32;108497;1274;22570;-74
2022/01/02 02:10:33;;;;;;;58.30;33.30;;;;;;;7.69;90.00;99337.22;108492;1274;22546;-72
2022/01/02 02:13:02;;;;;;;58.70;32.30;;;;;;;7.68;90.40;99329.48;108524;1274;22655;-73
2022/01/02 02:15:29;;;;;;;54.00;32.30;;;;;;;7.69;90.05;99326.48;108589;1274;23898;-77
2022/01/02 02:17:56;;;;;;;57.00;30.70;;;;;;;7.72;89.90;99317.48;108519;1274;22551;-74
2022/01/02 02:20:27;;;;;;;49.80;28.70;;;;;;;7.74;89.87;99313.23;108340;1274;22538;-73
2022/01/02 02:22:57;;;;;;;54.40;29.80;;;;;;;7.73;89.97;99312.75;108309;1274;22573;-75
2022/01/02 02:25:29;;;;;;;52.80;29.40;;;;;;;7.71;90.34;99311.80;108273;1274;22539;-74
2022/01/02 02:28:05;;;;;;;56.00;31.40;;;;;;;7.72;89.92;99315.40;108316;1274;22536;-73
2022/01/02 02:30:35;;;;;;;56.40;29.50;;;;;;;7.72;90.00;99320.94;108299;1273;22564;-74
2022/01/02 02:33:04;;;;;;;52.20;28.20;;;;;;;7.74;90.22;99324.16;108318;1274;22579;-74
2022/01/02 02:35:33;;;;;;;54.90;28.00;;;;;;;7.77;89.88;99324.92;108291;1274;22538;-74
2022/01/02 02:38:00;;;;;;;48.00;28.00;;;;;;;7.76;89.75;99328.73;108303;1274;22629;-74
2022/01/02 02:40:30;;;;;;;52.00;27.80;;;;;;;7.74;90.20;99332.50;108281;1274;25480;-74
2022/01/02 02:51:05;;;;;;;45.60;25.40;;;;;;;7.77;89.87;99312.79;108369;1274;25531;-74
2022/01/02 02:53:41;;;;;;;48.20;27.40;;;;;;;7.77;90.22;99311.58;108348;1274;22587;-74
2022/01/02 02:56:17;;;;;;;54.70;30.40;;;;;;;7.74;90.30;99305.42;108313;1274;22614;-74
2022/01/02 02:58:45;;;;;;;59.30;31.80;;;;;;;7.73;90.19;99301.48;108330;1274;25447;-74
2022/01/02 03:01:15;;;;;;;51.40;29.40;;;;;;;7.74;90.17;99298.36;108390;1274;22687;-74
2022/01/02 03:03:43;;;;;;;45.40;25.60;;;;;;;7.75;89.85;99298.80;108347;1274;22559;-74
2022/01/02 03:06:12;;;;;;;44.20;25.40;;;;;;;7.75;89.93;99297.60;108363;1274;22721;-74
2022/01/02 03:08:41;;;;;;;46.40;26.60;;;;;;;7.73;89.85;99292.65;108299;1273;25577;-73
2022/01/02 03:11:09;;;;;;;47.70;27.00;;;;;;;7.71;90.11;99288.91;108330;1274;22621;-75
2022/01/02 03:13:36;;;;;;;45.20;26.00;;;;;;;7.68;89.76;99286.30;108321;1274;22662;-74
2022/01/02 03:16:03;;;;;;;44.40;24.60;;;;;;;7.65;89.77;99287.98;108435;1274;22543;-75
2022/01/02 03:18:30;;;;;;;40.30;22.60;;;;;;;7.66;89.81;99285.69;108501;1274;22559;-76
2022/01/02 03:20:57;;;;;;;43.20;23.40;;;;;;;7.67;89.42;99281.84;108495;1274;22857;-74
2022/01/02 03:23:23;;;;;;;41.10;25.40;;;;;;;7.65;89.64;99278.09;108509;1274;22717;-74
2022/01/02 03:25:50;;;;;;;46.10;25.20;;;;;;;7.65;89.83;99277.75;108507;1274;25430;-75
2022/01/02 03:28:17;;;;;;;46.70;26.90;;;;;;;7.64;89.66;99277.46;108499;1274;22562;-74
2022/01/02 03:30:44;;;;;;;45.30;25.20;;;;;;;7.63;89.84;99273.67;108512;1274;22546;-74
2022/01/02 03:33:11;;;;;;;43.50;24.90;;;;;;;7.66;89.19;99274.05;108540;1274;22580;-74
2022/01/02 03:35:38;;;;;;;41.40;23.20;;;;;;;7.65;89.35;99268.38;108515;1274;22561;-75
2022/01/02 03:38:06;;;;;;;49.70;26.40;;;;;;;7.64;89.33;99260.09;108507;1274;22642;-74
2022/01/02 03:40:33;;;;;;;46.10;25.90;;;;;;;7.62;89.42;99253.07;108502;1274;22613;-74
2022/01/02 03:43:01;;;;;;;48.70;26.50;;;;;;;7.61;89.61;99249.69;108493;1274;22559;-75
2022/01/02 03:45:28;;;;;;;49.00;25.20;;;;;;;7.61;89.58;99243.95;108474;1274;22553;-75
2022/01/02 03:47:55;;;;;;;44.80;22.40;;;;;;;7.63;89.19;99243.50;108497;1274;22552;-75
2022/01/02 03:50:22;;;;;;;36.30;21.00;;;;;;;7.62;88.91;99241.13;108514;1274;22652;-75
2022/01/02 03:52:50;;;;;;;41.70;22.30;;;;;;;7.60;89.36;99241.55;108521;1274;22578;-75
2022/01/02 03:55:17;;;;;;;40.20;21.30;;;;;;;7.58;89.50;99246.86;108522;1274;22596;-75
2022/01/02 03:57:44;;;;;;;42.90;22.80;;;;;;;7.54;89.47;99249.26;108507;1274;22559;-75
2022/01/02 04:00:13;;;;;;;38.90;21.60;;;;;;;7.52;89.24;99244.65;108484;1274;22691;-75
2022/01/02 04:02:42;;;;;;;36.30;20.70;;;;;;;7.55;89.39;99246.80;108501;1274;22586;-76
2022/01/02 04:05:10;;;;;;;39.20;20.50;;;;;;;7.55;89.30;99242.81;108491;1274;22561;-75
2022/01/02 04:07:38;;;;;;;38.90;20.60;;;;;;;7.54;89.17;99232.79;108529;1274;22639;-75
2022/01/02 04:10:09;;;;;;;40.90;23.40;;;;;;;7.52;89.45;99230.82;108512;1274;22546;-75
2022/01/02 04:12:37;;;;;;;38.80;22.90;;;;;;;7.48;89.60;99228.38;108516;1274;22543;-75
2022/01/02 04:15:07;;;;;;;38.80;20.80;;;;;;;7.46;89.47;99225.35;108506;1273;22560;-75
2022/01/02 04:17:35;;;;;;;40.10;21.30;;;;;;;7.48;89.09;99220.08;108509;1274;22559;-75
2022/01/02 04:20:05;;;;;;;37.10;19.70;;;;;;;7.49;89.08;99220.20;108520;1274;22664;-75
2022/01/02 04:22:32;;;;;;;32.50;17.50;;;;;;;7.48;89.45;99222.98;108510;1273;22603;-74
2022/01/02 04:24:59;;;;;;;31.10;18.40;;;;;;;7.49;89.50;99223.66;108501;1274;22548;-75
2022/01/02 04:27:26;;;;;;;36.30;19.20;;;;;;;7.47;89.63;99219.94;108469;1274;22576;-75
2022/01/02 04:29:53;;;;;;;35.30;19.00;;;;;;;7.45;89.56;99211.87;108496;1274;25378;-75
2022/01/02 04:32:20;;;;;;;33.50;19.10;;;;;;;7.44;89.10;99211.73;108496;1274;25325;-75
2022/01/02 04:34:47;;;;;;;30.30;17.40;;;;;;;7.46;89.41;99205.59;108519;1274;22559;-79
2022/01/02 04:37:14;;;;;;;35.80;17.20;;;;;;;7.48;89.26;99202.23;108515;1274;22569;-75
2022/01/02 04:39:41;;;;;;;35.30;17.00;;;;;;;7.48;89.47;99192.88;108490;1274;25019;-75
2022/01/02 04:42:08;;;;;;;30.10;17.70;;;;;;;7.47;89.31;99181.98;108489;1274;24092;-75
2022/01/02 04:44:35;;;;;;;28.10;16.90;;;;;;;7.46;89.59;99182.73;108512;1274;22535;-75
2022/01/02 04:47:02;;;;;;;30.30;18.20;;;;;;;7.44;89.40;99182.27;108498;1274;22647;-75
2022/01/02 04:49:29;;;;;;;34.60;18.40;;;;;;;7.44;89.23;99176.20;108526;1272;22659;-75
2022/01/02 04:51:56;;;;;;;27.80;16.90;;;;;;;7.47;89.04;99167.09;108529;1274;22552;-75
2022/01/02 04:54:25;;;;;;;28.00;16.50;;;;;;;7.47;89.29;99161.89;108497;1274;22534;-75
2022/01/02 04:56:52;;;;;;;31.20;17.80;;;;;;;7.46;89.36;99150.85;108524;1274;22557;-75
2022/01/02 04:59:19;;;;;;;28.10;17.40;;;;;;;7.41;89.12;99148.46;108528;1274;22703;-76
2022/01/02 05:01:46;;;;;;;31.00;17.90;;;;;;;7.37;89.44;99148.61;108503;1274;22613;-75
2022/01/02 05:04:13;;;;;;;27.70;16.70;;;;;;;7.34;89.28;99141.83;108525;1274;22613;-79
2022/01/02 05:06:40;;;;;;;29.00;17.00;;;;;;;7.35;89.16;99139.36;108518;1274;22556;-76
2022/01/02 05:09:07;;;;;;;28.50;15.90;;;;;;;7.33;89.11;99143.95;108521;1274;22582;-77
2022/01/02 05:11:34;;;;;;;31.70;16.90;;;;;;;7.32;89.23;99142.81;108520;1274;22571;-75
2022/01/02 05:14:01;;;;;;;27.60;16.30;;;;;;;7.27;89.03;99143.87;108499;1274;22569;-75
2022/01/02 05:16:28;;;;;;;28.20;17.10;;;;;;;7.21;89.25;99141.23;108511;1274;22616;-78
2022/01/02 05:18:55;;;;;;;24.50;16.20;;;;;;;7.15;89.24;99135.73;108510;1274;22550;-79
2022/01/02 05:21:21;;;;;;;26.70;15.30;;;;;;;7.15;89.00;99128.48;108507;1274;22546;-78
2022/01/02 05:23:48;;;;;;;24.80;14.30;;;;;;;7.11;88.96;99121.35;108499;1274;22652;-77
2022/01/02 05:26:16;;;;;;;24.70;14.90;;;;;;;7.07;89.22;99112.38;108501;1274;22706;-79
2022/01/02 05:28:43;;;;;;;25.60;15.80;;;;;;;7.00;89.23;99104.85;108521;1274;25315;-79
2022/01/02 05:31:10;;;;;;;29.20;16.70;;;;;;;6.95;89.20;99092.28;108522;1274;22607;-75
2022/01/02 05:33:37;;;;;;;26.60;17.20;;;;;;;6.92;89.06;99088.59;108548;1274;22556;-77
2022/01/02 05:36:05;;;;;;;33.10;17.70;;;;;;;6.92;89.12;99085.31;108548;1274;22547;-76
2022/01/02 05:38:32;;;;;;;29.00;16.80;;;;;;;6.90;88.88;99076.38;108461;1274;22538;-74
2022/01/02 05:40:59;;;;;;;26.20;15.50;;;;;;;6.88;88.97;99075.83;108495;1274;22584;-74
2022/01/02 05:43:26;;;;;;;24.70;15.20;;;;;;;6.81;89.22;99064.51;108559;1274;22552;-74
2022/01/02 05:45:52;;;;;;;26.20;16.50;;;;;;;6.76;89.08;99063.52;108583;1274;22738;-73
2022/01/02 05:48:19;;;;;;;26.20;14.40;;;;;;;6.73;88.85;99059.29;108504;1274;24092;-74
2022/01/02 05:50:46;;;;;;;22.90;14.10;;;;;;;6.73;88.72;99048.73;108492;1274;22617;-74
2022/01/02 05:53:13;;;;;;;26.40;14.60;;;;;;;6.73;88.92;99044.58;108489;1274;24217;-73
2022/01/02 05:55:40;;;;;;;24.30;14.20;;;;;;;6.72;89.19;99038.75;108498;1273;24220;-73
2022/01/02 05:58:07;;;;;;;28.50;16.80;;;;;;;6.69;89.35;99033.00;108514;1274;24230;-73
2022/01/02 06:00:34;;;;;;;28.20;16.40;;;;;;;6.66;89.32;99029.66;108395;1274;22586;-73
2022/01/02 06:03:01;;;;;;;28.20;15.80;;;;;;;6.63;89.48;99022.34;108334;1274;22571;-75
2022/01/02 06:05:28;;;;;;;33.10;17.20;;;;;;;6.62;89.36;99018.77;108300;1272;25381;-73
2022/01/02 06:07:54;;;;;;;30.50;18.60;;;;;;;6.64;89.20;99016.05;108343;1274;22732;-73
2022/01/02 06:10:22;;;;;;;33.00;18.90;;;;;;;6.64;89.24;99014.52;108327;1274;23639;-73
2022/01/02 06:12:49;;;;;;;30.30;17.60;;;;;;;6.64;89.37;99019.36;108337;1274;23209;-74
2022/01/02 06:15:15;;;;;;;28.30;17.00;;;;;;;6.63;89.52;99017.00;108304;1274;22655;-73
2022/01/02 06:17:42;;;;;;;34.80;18.90;;;;;;;6.58;89.47;99013.59;108323;1273;22678;-72
2022/01/02 06:20:09;;;;;;;34.70;19.90;;;;;;;6.58;89.25;99008.02;108394;1274;22546;-72
2022/01/02 06:22:36;;;;;;;39.70;21.60;;;;;;;6.62;89.37;99001.09;108311;1274;22549;-73
2022/01/02 06:25:03;;;;;;;38.00;21.10;;;;;;;6.63;89.44;98997.77;108306;1274;22586;-73
2022/01/02 06:27:30;;;;;;;34.20;19.80;;;;;;;6.63;89.62;98988.95;108337;1274;22549;-75
2022/01/02 06:29:57;;;;;;;35.80;19.20;;;;;;;6.63;89.70;98987.74;108372;1273;22584;-74
2022/01/02 06:32:24;;;;;;;33.30;18.90;;;;;;;6.61;89.82;98985.94;108334;1274;22567;-73
2022/01/02 06:34:51;;;;;;;32.60;18.30;;;;;;;6.59;89.82;98983.43;108333;1274;22583;-73
2022/01/02 06:37:18;;;;;;;32.60;17.40;;;;;;;6.58;89.61;98979.30;108319;1274;24269;-73
2022/01/02 06:39:45;;;;;;;32.60;18.70;;;;;;;6.60;89.40;98965.73;108363;1274;22564;-72
2022/01/02 06:42:11;;;;;;;31.10;18.00;;;;;;;6.60;89.40;98956.73;108321;1273;22721;-73
2022/01/02 06:44:38;;;;;;;32.00;16.20;;;;;;;6.61;89.48;98963.44;108328;1274;22546;-74
2022/01/02 06:47:05;;;;;;;27.00;16.40;;;;;;;6.57;89.50;98969.66;108333;1274;22648;-74
2022/01/02 06:49:33;;;;;;;25.90;13.90;;;;;;;6.54;89.45;98969.94;108347;1274;22568;-73
2022/01/02 06:52:00;;;;;;;21.00;11.80;;;;;;;6.55;89.30;98975.65;108332;1274;22559;-74
2022/01/02 06:54:27;;;;;;;17.70;11.30;;;;;;;6.57;89.18;98970.88;108302;1274;22597;-73
2022/01/02 06:56:54;;;;;;;19.30;11.80;;;;;;;6.58;89.20;98962.02;108323;1274;22871;-74
2022/01/02 06:59:22;;;;;;;19.40;12.50;;;;;;;6.59;89.26;98956.95;108331;1274;25192;-73
2022/01/02 07:01:49;;;;;;;24.40;14.30;;;;;;;6.56;89.25;98956.19;108346;1274;22568;-73
2022/01/02 07:04:16;;;;;;;30.50;17.10;;;;;;;6.54;89.28;98947.64;108316;1274;22557;-74
2022/01/02 07:06:43;;;;;;;36.40;18.10;;;;;;;6.53;89.05;98941.80;108334;1274;22568;-73
2022/01/02 07:09:10;;;;;;;35.80;18.70;;;;;;;6.56;88.92;98944.95;108336;1272;22562;-73
2022/01/02 07:11:36;;;;;;;33.50;17.00;;;;;;;6.57;88.97;98944.75;108357;1274;23392;-73
2022/01/02 07:14:04;;;;;;;30.30;18.00;;;;;;;6.56;89.21;98948.23;108328;1272;22656;-74
2022/01/02 07:16:31;;;;;;;34.20;18.50;;;;;;;6.53;89.02;98939.53;108320;1274;22703;-73
2022/01/02 07:18:58;;;;;;;33.00;18.50;;;;;;;6.53;89.11;98940.63;108334;1274;22682;-73
2022/01/02 07:21:25;;;;;;;30.20;18.20;;;;;;;6.54;88.97;98941.77;108325;1274;22561;-73
2022/01/02 07:23:54;;;;;;;29.90;17.90;;;;;;;6.58;88.79;98934.15;108342;1274;22635;-74
2022/01/02 07:26:21;;;;;;;26.60;17.00;;;;;;;6.60;88.67;98928.71;108349;1274;22552;-74
2022/01/02 07:28:48;;;;;;;36.40;22.70;;;;;;;6.59;88.82;98924.60;108350;1274;23532;-74
2022/01/02 07:31:15;;;;;;;42.50;26.20;;;;;;;6.58;88.80;98920.82;108353;1274;22573;-73
2022/01/02 07:33:42;;;;;;;53.20;30.40;;;;;;;6.57;88.93;98913.92;108332;1274;22557;-72
2022/01/02 07:36:09;;;;;;;51.70;29.20;;;;;;;6.56;88.72;98900.48;108337;1274;22583;-73
2022/01/02 07:38:35;;;;;;;48.20;27.30;;;;;;;6.61;88.54;98897.15;108353;1274;24321;-73
2022/01/02 07:41:02;;;;;;;38.90;21.90;;;;;;;6.64;88.46;98897.20;108319;1274;24450;-73
2022/01/02 07:43:29;;;;;;;42.10;23.20;;;;;;;6.61;88.54;98893.18;108323;1273;24136;-72
2022/01/02 07:45:56;;;;;;;41.20;24.20;;;;;;;6.59;88.50;98894.51;108350;1274;22667;-73
2022/01/02 07:48:23;;;;;;;41.20;23.40;;;;;;;6.58;88.55;98887.23;108344;1274;22547;-73
2022/01/02 07:50:50;;;;;;;37.60;22.20;;;;;;;6.58;88.44;98880.15;108360;1273;22617;-74
2022/01/02 07:53:17;;;;;;;40.40;22.50;;;;;;;6.62;88.25;98868.89;108345;1274;22637;-74
2022/01/02 07:55:44;;;;;;;36.20;22.30;;;;;;;6.63;88.23;98870.74;108334;1274;22563;-74
2022/01/02 07:58:10;;;;;;;41.70;24.00;;;;;;;6.63;88.25;98878.73;108364;1273;22549;-75
2022/01/02 08:00:37;;;;;;;34.40;20.20;;;;;;;6.61;88.30;98882.27;108321;1274;22588;-73
2022/01/02 08:03:04;;;;;;;39.10;19.00;;;;;;;6.57;88.25;98875.19;108350;1274;22573;-73
2022/01/02 08:05:31;;;;;;;39.70;19.50;;;;;;;6.54;88.17;98872.56;108370;1274;22693;-73
2022/01/02 08:07:58;;;;;;;34.10;17.20;;;;;;;6.54;88.04;98868.39;108360;1272;22560;-74
2022/01/02 08:10:27;;;;;;;34.70;18.30;;;;;;;6.58;88.16;98858.34;108324;1274;22564;-73
2022/01/02 08:12:54;;;;;;;32.90;18.30;;;;;;;6.62;88.14;98854.55;108332;1272;23017;-73
2022/01/02 08:15:21;;;;;;;35.60;18.80;;;;;;;6.62;88.23;98859.38;108357;1274;22629;-72
2022/01/02 08:17:48;;;;;;;35.00;18.50;;;;;;;6.61;88.50;98858.08;108350;1274;22549;-73
2022/01/02 08:20:15;;;;;;;36.70;19.90;;;;;;;6.60;88.34;98854.64;108360;1274;22543;-72
2022/01/02 08:22:42;;;;;;;34.60;18.00;;;;;;;6.60;88.24;98859.64;108331;1274;22585;-72
2022/01/02 08:25:09;;;;;;;32.70;16.20;;;;;;;6.63;88.08;98854.83;108383;1274;22573;-73
2022/01/02 08:27:36;;;;;;;27.80;15.90;;;;;;;6.66;88.14;98854.34;108348;1274;22560;-72
2022/01/02 08:30:04;;;;;;;32.30;19.00;;;;;;;6.69;88.24;98852.34;108288;1273;24335;-72
2022/01/02 08:32:31;;;;;;;31.40;18.80;;;;;;;6.69;88.44;98847.28;108427;1274;22571;-72
2022/01/02 08:34:58;;;;;;;37.50;19.80;;;;;;;6.70;88.30;98852.45;108363;1274;22595;-72
2022/01/02 08:37:25;;;;;;;35.00;19.60;;;;;;;6.74;88.48;98858.48;108296;1274;22623;-73
2022/01/02 08:39:52;;;;;;;34.20;18.60;;;;;;;6.83;88.28;98855.64;108319;1273;22570;-74
2022/01/02 08:42:19;;;;;;;30.30;17.30;;;;;;;6.93;88.25;98850.69;108348;1274;22560;-75
2022/01/02 08:44:46;;;;;;;32.50;19.00;;;;;;;6.95;88.54;98851.27;108264;1274;24086;-72
2022/01/02 08:47:13;;;;;;;36.50;20.50;;;;;;;6.97;88.33;98852.70;108309;1274;23552;-74
2022/01/02 08:49:40;;;;;;;37.80;19.10;;;;;;;6.99;88.19;98847.58;108308;1273;22566;-73
2022/01/02 08:52:07;;;;;;;34.40;18.90;;;;;;;7.03;88.19;98847.61;108348;1274;23200;-74
2022/01/02 08:54:34;;;;;;;33.70;17.50;;;;;;;7.10;87.86;98846.75;108343;1274;25414;-72
2022/01/02 08:57:02;;;;;;;31.20;16.20;;;;;;;7.11;88.00;98841.64;108362;1274;22543;-73
2022/01/02 08:59:29;;;;;;;36.70;18.30;;;;;;;7.14;88.20;98838.61;108454;1273;22543;-73
2022/01/02 09:01:56;;;;;;;35.20;19.90;;;;;;;7.15;88.00;98843.57;108351;1274;22634;-72
2022/01/02 09:04:23;;;;;;;35.50;19.00;;;;;;;7.16;87.84;98847.66;108305;1273;22590;-71
2022/01/02 09:06:50;;;;;;;30.20;16.40;;;;;;;7.18;87.73;98850.34;108373;1274;22614;-71
2022/01/02 09:09:17;;;;;;;28.20;16.20;;;;;;;7.24;87.70;98850.95;108343;1274;22577;-74
2022/01/02 09:11:45;;;;;;;30.00;16.60;;;;;;;7.29;87.74;98850.84;108332;1274;22604;-75
2022/01/02 09:14:13;;;;;;;31.70;16.80;;;;;;;7.33;87.60;98847.89;108483;1274;22621;-75
2022/01/02 09:16:40;;;;;;;33.50;18.20;;;;;;;7.33;87.94;98841.28;108322;1274;23497;-75
2022/01/02 09:19:07;;;;;;;34.10;19.00;;;;;;;7.37;87.47;98838.15;108308;1273;22565;-74
2022/01/02 09:21:34;;;;;;;30.90;18.20;;;;;;;7.43;87.48;98835.09;108318;1273;23750;-74
2022/01/02 09:24:01;;;;;;;26.50;14.50;;;;;;;7.50;87.32;98831.64;108266;1273;22637;-73
2022/01/02 09:26:28;;;;;;;29.50;14.60;;;;;;;7.55;87.19;98825.48;108296;1273;23975;-72
2022/01/02 09:28:55;;;;;;;31.20;17.20;;;;;;;7.60;87.26;98827.13;108362;1273;22625;-74
2022/01/02 09:31:22;;;;;;;30.20;15.50;;;;;;;7.60;87.18;98828.88;108352;1274;22543;-74
2022/01/02 09:33:49;;;;;;;26.00;14.90;;;;;;;7.59;86.98;98831.70;108337;1274;22761;-73
2022/01/02 09:36:17;;;;;;;29.60;15.60;;;;;;;7.61;86.36;98826.75;108305;1274;22554;-73
2022/01/02 09:38:44;;;;;;;27.80;16.10;;;;;;;7.62;86.22;98829.98;108314;1274;22572;-72
2022/01/02 09:41:11;;;;;;;25.40;15.20;;;;;;;7.67;86.64;98828.52;108364;1274;22574;-71
2022/01/02 09:43:38;;;;;;;30.20;15.60;;;;;;;7.70;86.64;98827.52;108354;1273;22544;-73
2022/01/02 09:46:06;;;;;;;29.60;13.30;;;;;;;7.71;86.61;98826.09;108351;1274;23151;-72
2022/01/02 09:48:33;;;;;;;26.20;14.80;;;;;;;7.74;86.36;98816.02;108351;1274;22597;-72
2022/01/02 09:51:01;;;;;;;31.30;18.80;;;;;;;7.79;86.35;98815.45;108382;1274;22697;-73
2022/01/02 09:53:28;;;;;;;34.20;24.20;;;;;;;7.86;85.41;98806.55;108360;1274;22636;-72
2022/01/02 09:55:55;;;;;;;38.80;26.80;;;;;;;7.95;85.66;98793.30;108364;1274;22567;-72
2022/01/02 09:58:22;;;;;;;41.30;23.80;;;;;;;8.05;85.91;98787.73;108328;1274;25423;-73
2022/01/02 10:00:49;;;;;;;42.00;22.60;;;;;;;8.13;85.86;98790.95;108293;1272;22703;-73
2022/01/02 10:03:17;;;;;;;59.30;31.20;;;;;;;8.19;84.92;98785.59;108319;1274;24394;-72
2022/01/02 10:05:56;;;;;;;25.50;14.10;;;;;;;8.27;84.58;98782.76;108338;1274;25363;-72
2022/01/02 10:08:33;;;;;;;39.50;22.40;;;;;;;8.35;83.89;98780.97;108328;1274;22545;-73
2022/01/02 10:11:04;;;;;;;46.40;26.30;;;;;;;8.46;83.59;98780.54;108381;1274;23276;-72
2022/01/02 10:14:05;;;;;;;32.80;18.70;;;;;;;8.54;83.40;98781.30;108337;1274;25522;-74
2022/01/02 10:16:33;;;;;;;19.60;12.60;;;;;;;8.63;83.81;98781.17;108345;1274;25335;-74
2022/01/02 10:19:36;;;;;;;16.40;9.40;;;;;;;8.67;82.86;98775.75;108701;1272;22608;-81
2022/01/02 10:22:04;;;;;;;10.50;6.40;;;;;;;8.72;82.47;98766.42;108324;1272;22557;-75
2022/01/02 10:24:36;;;;;;;11.80;5.60;;;;;;;8.82;82.32;98773.17;108341;1274;22603;-74
2022/01/02 10:27:10;;;;;;;13.00;7.10;;;;;;;8.87;82.31;98763.51;108309;1274;22601;-75
2022/01/02 10:29:44;;;;;;;;;;;;;;;8.93;82.35;98756.23;108368;1274;22579;-74
2022/01/02 10:32:33;;;;;;;15.50;6.60;;;;;;;8.94;82.34;98753.39;108369;1274;22543;-74
2022/01/02 10:35:11;;;;;;;13.80;6.90;;;;;;;8.99;81.27;98746.30;108366;1274;22565;-75
2022/01/02 10:37:43;;;;;;;11.80;6.40;;;;;;;9.08;80.81;98738.20;108337;1274;22549;-71
2022/01/02 10:40:34;;;;;;;13.40;6.00;;;;;;;9.14;81.18;98735.05;108334;1274;22614;-73
2022/01/02 10:43:04;;;;;;;11.90;6.20;;;;;;;9.18;81.36;98722.48;108329;1274;23253;-74
2022/01/02 10:45:33;;;;;;;14.20;7.50;;;;;;;9.19;80.77;98714.25;108461;1274;22557;-73
2022/01/02 10:48:00;;;;;;;16.60;7.80;;;;;;;9.20;80.72;98710.88;108312;1274;22567;-72
2022/01/02 10:50:27;;;;;;;13.10;8.40;;;;;;;9.24;80.22;98706.29;108775;1272;22551;-73
2022/01/02 10:52:54;;;;;;;14.10;6.90;;;;;;;9.25;79.47;98707.64;108341;1272;22626;-73
2022/01/02 10:55:25;;;;;;;13.50;6.60;;;;;;;9.28;80.21;98707.66;108301;1274;22722;-74
2022/01/02 10:57:53;;;;;;;14.10;6.80;;;;;;;9.32;80.06;98703.34;108334;1274;22613;-74
2022/01/02 11:00:24;;;;;;;13.10;7.20;;;;;;;9.35;80.00;98704.95;108338;1272;22582;-73
2022/01/02 11:02:51;;;;;;;13.10;7.00;;;;;;;9.34;79.84;98705.36;108350;1274;22546;-73
2022/01/02 11:05:21;;;;;;;15.00;7.20;;;;;;;9.35;79.48;98700.63;108309;1272;22587;-73
2022/01/02 11:07:55;;;;;;;13.70;6.90;;;;;;;9.35;79.60;98695.39;108339;1274;22549;-73
2022/01/02 11:10:23;;;;;;;12.20;6.20;;;;;;;9.37;79.01;98686.55;108318;1273;23500;-74
2022/01/02 11:12:51;;;;;;;13.20;6.20;;;;;;;9.43;78.79;98685.71;108331;1274;23932;-73
2022/01/02 11:15:22;;;;;;;13.30;6.20;;;;;;;9.49;78.94;98682.23;108313;1274;24344;-74
2022/01/02 11:17:50;;;;;;;13.80;7.60;;;;;;;9.50;79.47;98684.58;108354;1272;22676;-74
2022/01/02 11:20:22;;;;;;;18.40;8.50;;;;;;;9.51;78.92;98680.04;108382;1274;22547;-74
2022/01/02 11:22:58;;;;;;;23.00;9.70;;;;;;;9.53;78.44;98674.52;108313;1273;23523;-73
2022/01/02 11:25:31;;;;;;;20.00;9.20;;;;;;;9.53;78.15;98669.11;108331;1274;22711;-74
2022/01/02 11:28:03;;;;;;;21.60;9.60;;;;;;;9.53;78.43;98668.78;108319;1274;22595;-74
2022/01/02 11:30:29;;;;;;;16.50;6.80;;;;;;;9.61;77.95;98669.50;108385;1272;22550;-74
2022/01/02 11:33:31;;;;;;;15.50;7.40;;;;;;;9.66;77.79;98664.31;108342;1274;23139;-73